sensor_id;sensor_type;location;lat;lon;timestamp;P1;durP1;ratioP1;P2;durP2;ratioP2
34765;SDS011;20984;43.508;1.504;2022-08-02T00:01:41;3.03;;;2.08;;
34765;SDS011;20984;43.508;1.504;2022-08-02T00:04:07;4.75;;;2.45;;
34765;SDS011;20984;43.508;1.504;2022-08-02T00:06:33;5.90;;;1.70;;
34765;SDS011;20984;43.508;1.504;2022-08-02T00:09:00;8.45;;;2.35;;
34765;SDS011;20984;43.508;1.504;2022-08-02T00:11:27;3.42;;;2.10;;
34765;SDS011;20984;43.508;1.504;2022-08-02T00:13:53;5.45;;;2.42;;
34765;SDS011;20984;43.508;1.504;2022-08-02T00:16:18;8.40;;;3.05;;
34765;SDS011;20984;43.508;1.504;2022-08-02T00:18:44;4.63;;;2.85;;
34765;SDS011;20984;43.508;1.504;2022-08-02T00:21:10;3.92;;;2.05;;
34765;SDS011;20984;43.508;1.504;2022-08-02T00:23:36;5.03;;;2.20;;
34765;SDS011;20984;43.508;1.504;2022-08-02T00:26:02;6.45;;;2.40;;
34765;SDS011;20984;43.508;1.504;2022-08-02T00:28:28;8.02;;;2.45;;
34765;SDS011;20984;43.508;1.504;2022-08-02T00:30:54;4.28;;;2.30;;
34765;SDS011;20984;43.508;1.504;2022-08-02T00:33:21;4.53;;;2.40;;
34765;SDS011;20984;43.508;1.504;2022-08-02T00:35:46;4.57;;;2.60;;
34765;SDS011;20984;43.508;1.504;2022-08-02T00:38:12;4.13;;;2.60;;
34765;SDS011;20984;43.508;1.504;2022-08-02T00:40:38;6.53;;;2.85;;
34765;SDS011;20984;43.508;1.504;2022-08-02T00:43:06;7.43;;;3.03;;
34765;SDS011;20984;43.508;1.504;2022-08-02T00:45:33;6.30;;;2.70;;
34765;SDS011;20984;43.508;1.504;2022-08-02T00:48:00;4.28;;;2.42;;
34765;SDS011;20984;43.508;1.504;2022-08-02T00:50:27;11.07;;;2.95;;
34765;SDS011;20984;43.508;1.504;2022-08-02T00:52:53;5.20;;;3.22;;
34765;SDS011;20984;43.508;1.504;2022-08-02T00:55:20;4.97;;;3.10;;
34765;SDS011;20984;43.508;1.504;2022-08-02T00:57:45;5.80;;;2.90;;
34765;SDS011;20984;43.508;1.504;2022-08-02T01:00:12;5.43;;;2.90;;
34765;SDS011;20984;43.508;1.504;2022-08-02T01:02:38;4.75;;;3.10;;
34765;SDS011;20984;43.508;1.504;2022-08-02T01:05:04;7.30;;;3.50;;
34765;SDS011;20984;43.508;1.504;2022-08-02T01:07:30;8.00;;;3.70;;
34765;SDS011;20984;43.508;1.504;2022-08-02T01:09:56;9.23;;;3.45;;
34765;SDS011;20984;43.508;1.504;2022-08-02T01:12:22;4.32;;;3.58;;
34765;SDS011;20984;43.508;1.504;2022-08-02T01:14:52;9.75;;;3.97;;
34765;SDS011;20984;43.508;1.504;2022-08-02T01:17:31;8.20;;;3.63;;
34765;SDS011;20984;43.508;1.504;2022-08-02T01:26:02;6.05;;;3.40;;
34765;SDS011;20984;43.508;1.504;2022-08-02T01:34:03;7.93;;;4.03;;
34765;SDS011;20984;43.508;1.504;2022-08-02T01:36:43;9.27;;;4.47;;
34765;SDS011;20984;43.508;1.504;2022-08-02T01:39:33;4.97;;;3.63;;
34765;SDS011;20984;43.508;1.504;2022-08-02T01:42:03;4.73;;;3.70;;
34765;SDS011;20984;43.508;1.504;2022-08-02T01:44:31;10.00;;;3.88;;
34765;SDS011;20984;43.508;1.504;2022-08-02T01:47:01;6.82;;;4.22;;
34765;SDS011;20984;43.508;1.504;2022-08-02T01:49:31;5.38;;;3.70;;
34765;SDS011;20984;43.508;1.504;2022-08-02T01:51:59;10.45;;;4.88;;
34765;SDS011;20984;43.508;1.504;2022-08-02T01:54:46;4.88;;;3.92;;
34765;SDS011;20984;43.508;1.504;2022-08-02T01:57:40;5.22;;;3.88;;
34765;SDS011;20984;43.508;1.504;2022-08-02T02:00:11;5.47;;;4.00;;
34765;SDS011;20984;43.508;1.504;2022-08-02T02:02:39;8.10;;;4.30;;
34765;SDS011;20984;43.508;1.504;2022-08-02T02:05:19;11.55;;;4.60;;
34765;SDS011;20984;43.508;1.504;2022-08-02T02:07:48;9.80;;;4.22;;
34765;SDS011;20984;43.508;1.504;2022-08-02T02:10:21;4.97;;;3.95;;
34765;SDS011;20984;43.508;1.504;2022-08-02T02:12:50;7.68;;;4.45;;
34765;SDS011;20984;43.508;1.504;2022-08-02T02:15:19;7.28;;;4.65;;
34765;SDS011;20984;43.508;1.504;2022-08-02T02:17:46;9.73;;;5.18;;
34765;SDS011;20984;43.508;1.504;2022-08-02T02:20:16;7.30;;;4.90;;
34765;SDS011;20984;43.508;1.504;2022-08-02T02:22:44;10.32;;;4.72;;
34765;SDS011;20984;43.508;1.504;2022-08-02T02:25:11;11.93;;;4.28;;
34765;SDS011;20984;43.508;1.504;2022-08-02T02:27:52;6.07;;;4.18;;
34765;SDS011;20984;43.508;1.504;2022-08-02T02:30:27;7.75;;;4.88;;
34765;SDS011;20984;43.508;1.504;2022-08-02T02:32:58;6.10;;;3.72;;
34765;SDS011;20984;43.508;1.504;2022-08-02T02:35:29;8.45;;;4.25;;
34765;SDS011;20984;43.508;1.504;2022-08-02T02:38:01;7.88;;;4.25;;
34765;SDS011;20984;43.508;1.504;2022-08-02T02:40:29;5.05;;;4.38;;
34765;SDS011;20984;43.508;1.504;2022-08-02T02:42:57;8.77;;;4.70;;
34765;SDS011;20984;43.508;1.504;2022-08-02T02:45:25;7.28;;;4.32;;
34765;SDS011;20984;43.508;1.504;2022-08-02T02:47:54;7.40;;;4.43;;
34765;SDS011;20984;43.508;1.504;2022-08-02T02:50:21;5.60;;;3.97;;
34765;SDS011;20984;43.508;1.504;2022-08-02T02:52:48;11.15;;;4.35;;
34765;SDS011;20984;43.508;1.504;2022-08-02T02:55:17;8.63;;;4.13;;
34765;SDS011;20984;43.508;1.504;2022-08-02T02:57:43;5.13;;;4.22;;
34765;SDS011;20984;43.508;1.504;2022-08-02T03:00:10;8.20;;;4.35;;
34765;SDS011;20984;43.508;1.504;2022-08-02T03:02:38;7.35;;;4.72;;
34765;SDS011;20984;43.508;1.504;2022-08-02T03:05:06;6.25;;;4.85;;
34765;SDS011;20984;43.508;1.504;2022-08-02T03:07:34;7.03;;;4.47;;
34765;SDS011;20984;43.508;1.504;2022-08-02T03:10:02;6.63;;;4.40;;
34765;SDS011;20984;43.508;1.504;2022-08-02T03:12:29;11.30;;;4.43;;
34765;SDS011;20984;43.508;1.504;2022-08-02T03:14:56;7.68;;;4.78;;
34765;SDS011;20984;43.508;1.504;2022-08-02T03:17:41;10.30;;;4.63;;
34765;SDS011;20984;43.508;1.504;2022-08-02T03:20:10;16.42;;;4.78;;
34765;SDS011;20984;43.508;1.504;2022-08-02T03:22:38;12.32;;;4.95;;
34765;SDS011;20984;43.508;1.504;2022-08-02T03:25:04;8.75;;;4.05;;
34765;SDS011;20984;43.508;1.504;2022-08-02T03:27:31;7.95;;;4.38;;
34765;SDS011;20984;43.508;1.504;2022-08-02T03:29:57;6.68;;;4.30;;
34765;SDS011;20984;43.508;1.504;2022-08-02T03:32:23;6.65;;;3.97;;
34765;SDS011;20984;43.508;1.504;2022-08-02T03:34:49;9.70;;;4.57;;
34765;SDS011;20984;43.508;1.504;2022-08-02T03:37:15;8.82;;;4.97;;
34765;SDS011;20984;43.508;1.504;2022-08-02T03:39:41;16.02;;;5.00;;
34765;SDS011;20984;43.508;1.504;2022-08-02T03:42:08;9.27;;;4.40;;
34765;SDS011;20984;43.508;1.504;2022-08-02T03:44:34;6.70;;;4.28;;
34765;SDS011;20984;43.508;1.504;2022-08-02T03:47:03;7.07;;;4.57;;
34765;SDS011;20984;43.508;1.504;2022-08-02T03:49:31;7.13;;;3.83;;
34765;SDS011;20984;43.508;1.504;2022-08-02T03:51:58;11.63;;;4.50;;
34765;SDS011;20984;43.508;1.504;2022-08-02T03:54:25;8.07;;;4.25;;
34765;SDS011;20984;43.508;1.504;2022-08-02T03:56:52;6.82;;;4.25;;
34765;SDS011;20984;43.508;1.504;2022-08-02T03:59:18;6.68;;;4.50;;
34765;SDS011;20984;43.508;1.504;2022-08-02T04:01:44;6.18;;;4.72;;
34765;SDS011;20984;43.508;1.504;2022-08-02T04:04:10;7.95;;;4.90;;
34765;SDS011;20984;43.508;1.504;2022-08-02T04:06:36;9.98;;;4.47;;
34765;SDS011;20984;43.508;1.504;2022-08-02T04:09:02;7.07;;;4.43;;
34765;SDS011;20984;43.508;1.504;2022-08-02T04:11:28;7.68;;;4.45;;
34765;SDS011;20984;43.508;1.504;2022-08-02T04:14:00;8.80;;;5.25;;
34765;SDS011;20984;43.508;1.504;2022-08-02T04:16:33;11.25;;;4.75;;
34765;SDS011;20984;43.508;1.504;2022-08-02T04:19:04;11.20;;;4.53;;
34765;SDS011;20984;43.508;1.504;2022-08-02T04:21:35;8.25;;;4.68;;
34765;SDS011;20984;43.508;1.504;2022-08-02T04:24:03;9.85;;;5.22;;
34765;SDS011;20984;43.508;1.504;2022-08-02T04:26:33;5.97;;;5.20;;
34765;SDS011;20984;43.508;1.504;2022-08-02T04:29:00;6.43;;;4.38;;
34765;SDS011;20984;43.508;1.504;2022-08-02T04:31:26;9.27;;;4.20;;
34765;SDS011;20984;43.508;1.504;2022-08-02T04:33:53;7.50;;;5.20;;
34765;SDS011;20984;43.508;1.504;2022-08-02T04:36:19;9.38;;;4.18;;
34765;SDS011;20984;43.508;1.504;2022-08-02T04:38:47;7.50;;;4.50;;
34765;SDS011;20984;43.508;1.504;2022-08-02T04:41:14;8.57;;;5.70;;
34765;SDS011;20984;43.508;1.504;2022-08-02T04:43:40;7.18;;;5.00;;
34765;SDS011;20984;43.508;1.504;2022-08-02T04:46:06;16.38;;;5.88;;
34765;SDS011;20984;43.508;1.504;2022-08-02T04:48:32;9.50;;;4.70;;
34765;SDS011;20984;43.508;1.504;2022-08-02T04:50:58;8.77;;;4.97;;
34765;SDS011;20984;43.508;1.504;2022-08-02T04:53:23;9.82;;;4.70;;
34765;SDS011;20984;43.508;1.504;2022-08-02T04:55:49;9.00;;;4.80;;
34765;SDS011;20984;43.508;1.504;2022-08-02T04:58:15;11.52;;;4.93;;
34765;SDS011;20984;43.508;1.504;2022-08-02T05:00:42;7.47;;;4.20;;
34765;SDS011;20984;43.508;1.504;2022-08-02T05:03:08;6.78;;;4.65;;
34765;SDS011;20984;43.508;1.504;2022-08-02T05:05:34;7.85;;;4.30;;
34765;SDS011;20984;43.508;1.504;2022-08-02T05:08:00;12.68;;;4.78;;
34765;SDS011;20984;43.508;1.504;2022-08-02T05:10:26;6.82;;;4.70;;
34765;SDS011;20984;43.508;1.504;2022-08-02T05:12:52;6.95;;;4.47;;
34765;SDS011;20984;43.508;1.504;2022-08-02T05:15:18;8.60;;;4.78;;
34765;SDS011;20984;43.508;1.504;2022-08-02T05:17:45;7.53;;;3.78;;
34765;SDS011;20984;43.508;1.504;2022-08-02T05:20:11;5.97;;;4.78;;
34765;SDS011;20984;43.508;1.504;2022-08-02T05:22:38;6.40;;;4.57;;
34765;SDS011;20984;43.508;1.504;2022-08-02T05:25:04;6.47;;;4.45;;
34765;SDS011;20984;43.508;1.504;2022-08-02T05:27:30;7.60;;;5.20;;
34765;SDS011;20984;43.508;1.504;2022-08-02T05:29:57;8.93;;;5.50;;
34765;SDS011;20984;43.508;1.504;2022-08-02T05:32:24;6.93;;;4.93;;
34765;SDS011;20984;43.508;1.504;2022-08-02T05:34:50;6.35;;;4.80;;
34765;SDS011;20984;43.508;1.504;2022-08-02T05:37:16;10.98;;;4.50;;
34765;SDS011;20984;43.508;1.504;2022-08-02T05:39:42;5.68;;;4.65;;
34765;SDS011;20984;43.508;1.504;2022-08-02T05:42:09;9.20;;;4.70;;
34765;SDS011;20984;43.508;1.504;2022-08-02T05:44:35;7.53;;;4.18;;
34765;SDS011;20984;43.508;1.504;2022-08-02T05:47:01;7.25;;;4.30;;
34765;SDS011;20984;43.508;1.504;2022-08-02T05:49:27;11.98;;;4.93;;
34765;SDS011;20984;43.508;1.504;2022-08-02T05:51:59;13.27;;;4.88;;
34765;SDS011;20984;43.508;1.504;2022-08-02T05:54:42;6.47;;;4.03;;
34765;SDS011;20984;43.508;1.504;2022-08-02T05:57:16;8.43;;;4.45;;
34765;SDS011;20984;43.508;1.504;2022-08-02T06:00:06;6.10;;;4.20;;
34765;SDS011;20984;43.508;1.504;2022-08-02T06:05:40;10.95;;;4.70;;
34765;SDS011;20984;43.508;1.504;2022-08-02T06:08:36;10.52;;;4.45;;
34765;SDS011;20984;43.508;1.504;2022-08-02T06:11:07;7.78;;;4.68;;
34765;SDS011;20984;43.508;1.504;2022-08-02T06:13:41;7.97;;;4.40;;
34765;SDS011;20984;43.508;1.504;2022-08-02T06:16:09;6.55;;;3.83;;
34765;SDS011;20984;43.508;1.504;2022-08-02T06:18:35;7.78;;;4.55;;
34765;SDS011;20984;43.508;1.504;2022-08-02T06:21:02;5.53;;;3.42;;
34765;SDS011;20984;43.508;1.504;2022-08-02T06:23:29;6.43;;;4.10;;
34765;SDS011;20984;43.508;1.504;2022-08-02T06:25:57;13.52;;;4.50;;
34765;SDS011;20984;43.508;1.504;2022-08-02T06:28:24;6.57;;;4.38;;
34765;SDS011;20984;43.508;1.504;2022-08-02T06:30:51;8.35;;;4.72;;
34765;SDS011;20984;43.508;1.504;2022-08-02T06:33:17;10.35;;;4.40;;
34765;SDS011;20984;43.508;1.504;2022-08-02T06:35:44;8.80;;;4.80;;
34765;SDS011;20984;43.508;1.504;2022-08-02T06:38:25;13.80;;;5.13;;
34765;SDS011;20984;43.508;1.504;2022-08-02T06:41:04;5.68;;;4.38;;
34765;SDS011;20984;43.508;1.504;2022-08-02T06:46:09;10.02;;;4.20;;
34765;SDS011;20984;43.508;1.504;2022-08-02T06:48:35;6.72;;;4.40;;
34765;SDS011;20984;43.508;1.504;2022-08-02T06:51:02;6.22;;;3.97;;
34765;SDS011;20984;43.508;1.504;2022-08-02T06:53:28;7.15;;;4.53;;
34765;SDS011;20984;43.508;1.504;2022-08-02T06:55:54;6.75;;;3.60;;
34765;SDS011;20984;43.508;1.504;2022-08-02T06:58:20;9.98;;;4.00;;
34765;SDS011;20984;43.508;1.504;2022-08-02T07:00:46;9.32;;;4.45;;
34765;SDS011;20984;43.508;1.504;2022-08-02T07:03:12;7.43;;;4.00;;
34765;SDS011;20984;43.508;1.504;2022-08-02T07:05:39;6.90;;;4.30;;
34765;SDS011;20984;43.508;1.504;2022-08-02T07:08:05;12.70;;;5.05;;
34765;SDS011;20984;43.508;1.504;2022-08-02T07:10:31;8.07;;;3.90;;
34765;SDS011;20984;43.508;1.504;2022-08-02T07:12:57;9.88;;;4.20;;
34765;SDS011;20984;43.508;1.504;2022-08-02T07:15:23;7.80;;;4.22;;
34765;SDS011;20984;43.508;1.504;2022-08-02T07:17:49;8.10;;;3.78;;
34765;SDS011;20984;43.508;1.504;2022-08-02T07:20:15;7.22;;;3.70;;
34765;SDS011;20984;43.508;1.504;2022-08-02T07:22:41;9.45;;;4.15;;
34765;SDS011;20984;43.508;1.504;2022-08-02T07:25:07;7.43;;;3.90;;
34765;SDS011;20984;43.508;1.504;2022-08-02T07:27:33;6.65;;;3.47;;
34765;SDS011;20984;43.508;1.504;2022-08-02T07:29:59;7.60;;;4.25;;
34765;SDS011;20984;43.508;1.504;2022-08-02T07:32:26;5.47;;;3.95;;
34765;SDS011;20984;43.508;1.504;2022-08-02T07:34:54;14.75;;;4.38;;
34765;SDS011;20984;43.508;1.504;2022-08-02T07:37:24;8.32;;;3.42;;
34765;SDS011;20984;43.508;1.504;2022-08-02T07:39:54;8.60;;;4.47;;
34765;SDS011;20984;43.508;1.504;2022-08-02T07:42:20;11.52;;;3.97;;
34765;SDS011;20984;43.508;1.504;2022-08-02T07:44:46;15.27;;;3.70;;
34765;SDS011;20984;43.508;1.504;2022-08-02T07:47:12;17.83;;;4.45;;
34765;SDS011;20984;43.508;1.504;2022-08-02T07:49:38;8.90;;;4.18;;
34765;SDS011;20984;43.508;1.504;2022-08-02T07:52:04;10.63;;;3.78;;
34765;SDS011;20984;43.508;1.504;2022-08-02T07:54:30;12.93;;;4.50;;
34765;SDS011;20984;43.508;1.504;2022-08-02T07:56:56;12.68;;;3.95;;
34765;SDS011;20984;43.508;1.504;2022-08-02T07:59:22;8.57;;;3.70;;
34765;SDS011;20984;43.508;1.504;2022-08-02T08:01:48;7.82;;;4.50;;
34765;SDS011;20984;43.508;1.504;2022-08-02T08:04:17;11.02;;;4.07;;
34765;SDS011;20984;43.508;1.504;2022-08-02T08:06:43;8.75;;;3.85;;
34765;SDS011;20984;43.508;1.504;2022-08-02T08:09:09;10.20;;;3.72;;
34765;SDS011;20984;43.508;1.504;2022-08-02T08:11:36;7.18;;;3.42;;
34765;SDS011;20984;43.508;1.504;2022-08-02T08:14:03;10.48;;;3.88;;
34765;SDS011;20984;43.508;1.504;2022-08-02T08:16:31;17.17;;;3.55;;
34765;SDS011;20984;43.508;1.504;2022-08-02T08:18:57;8.52;;;4.20;;
34765;SDS011;20984;43.508;1.504;2022-08-02T08:21:22;10.80;;;3.33;;
34765;SDS011;20984;43.508;1.504;2022-08-02T08:23:48;10.38;;;3.60;;
34765;SDS011;20984;43.508;1.504;2022-08-02T08:26:14;5.93;;;3.60;;
34765;SDS011;20984;43.508;1.504;2022-08-02T08:28:40;10.32;;;3.05;;
34765;SDS011;20984;43.508;1.504;2022-08-02T08:31:06;8.50;;;3.47;;
34765;SDS011;20984;43.508;1.504;2022-08-02T08:33:32;10.93;;;4.05;;
34765;SDS011;20984;43.508;1.504;2022-08-02T08:35:57;9.90;;;3.63;;
34765;SDS011;20984;43.508;1.504;2022-08-02T08:38:23;15.20;;;4.05;;
34765;SDS011;20984;43.508;1.504;2022-08-02T08:40:49;10.07;;;3.40;;
34765;SDS011;20984;43.508;1.504;2022-08-02T08:43:16;5.20;;;3.30;;
34765;SDS011;20984;43.508;1.504;2022-08-02T08:45:43;17.63;;;4.43;;
34765;SDS011;20984;43.508;1.504;2022-08-02T08:48:10;20.17;;;5.10;;
34765;SDS011;20984;43.508;1.504;2022-08-02T08:51:00;5.88;;;3.28;;
34765;SDS011;20984;43.508;1.504;2022-08-02T08:53:50;9.13;;;3.65;;
34765;SDS011;20984;43.508;1.504;2022-08-02T08:58:47;10.05;;;3.17;;
34765;SDS011;20984;43.508;1.504;2022-08-02T09:01:13;10.40;;;3.83;;
34765;SDS011;20984;43.508;1.504;2022-08-02T09:03:41;15.65;;;3.45;;
34765;SDS011;20984;43.508;1.504;2022-08-02T09:06:08;12.35;;;3.78;;
34765;SDS011;20984;43.508;1.504;2022-08-02T09:08:33;8.75;;;3.13;;
34765;SDS011;20984;43.508;1.504;2022-08-02T09:10:59;13.63;;;3.92;;
34765;SDS011;20984;43.508;1.504;2022-08-02T09:13:26;7.82;;;3.20;;
34765;SDS011;20984;43.508;1.504;2022-08-02T09:16:00;6.03;;;3.03;;
34765;SDS011;20984;43.508;1.504;2022-08-02T09:18:31;12.35;;;3.58;;
34765;SDS011;20984;43.508;1.504;2022-08-02T09:20:59;6.97;;;3.35;;
34765;SDS011;20984;43.508;1.504;2022-08-02T09:23:39;7.45;;;2.88;;
34765;SDS011;20984;43.508;1.504;2022-08-02T09:26:08;9.52;;;3.50;;
34765;SDS011;20984;43.508;1.504;2022-08-02T09:28:40;4.40;;;3.00;;
34765;SDS011;20984;43.508;1.504;2022-08-02T09:31:08;14.57;;;3.20;;
34765;SDS011;20984;43.508;1.504;2022-08-02T09:33:36;8.98;;;3.17;;
34765;SDS011;20984;43.508;1.504;2022-08-02T09:36:04;10.23;;;3.47;;
34765;SDS011;20984;43.508;1.504;2022-08-02T09:38:36;9.98;;;3.42;;
34765;SDS011;20984;43.508;1.504;2022-08-02T09:41:03;6.35;;;2.90;;
34765;SDS011;20984;43.508;1.504;2022-08-02T09:43:39;9.27;;;3.20;;
34765;SDS011;20984;43.508;1.504;2022-08-02T09:49:40;6.90;;;2.58;;
34765;SDS011;20984;43.508;1.504;2022-08-02T09:51:47;8.85;;;2.72;;
34765;SDS011;20984;43.508;1.504;2022-08-02T09:54:16;6.30;;;2.88;;
34765;SDS011;20984;43.508;1.504;2022-08-02T09:56:46;7.90;;;3.20;;
34765;SDS011;20984;43.508;1.504;2022-08-02T09:59:14;7.28;;;2.83;;
34765;SDS011;20984;43.508;1.504;2022-08-02T10:01:41;10.77;;;3.75;;
34765;SDS011;20984;43.508;1.504;2022-08-02T10:04:09;6.75;;;2.67;;
34765;SDS011;20984;43.508;1.504;2022-08-02T10:06:36;4.38;;;2.55;;
34765;SDS011;20984;43.508;1.504;2022-08-02T10:09:04;9.38;;;2.80;;
34765;SDS011;20984;43.508;1.504;2022-08-02T10:11:30;11.05;;;2.78;;
34765;SDS011;20984;43.508;1.504;2022-08-02T10:13:57;7.68;;;2.88;;
34765;SDS011;20984;43.508;1.504;2022-08-02T10:16:24;12.57;;;2.88;;
34765;SDS011;20984;43.508;1.504;2022-08-02T10:18:51;5.43;;;2.92;;
34765;SDS011;20984;43.508;1.504;2022-08-02T10:21:22;4.70;;;2.85;;
34765;SDS011;20984;43.508;1.504;2022-08-02T10:23:56;7.35;;;2.45;;
34765;SDS011;20984;43.508;1.504;2022-08-02T10:26:35;10.77;;;2.80;;
34765;SDS011;20984;43.508;1.504;2022-08-02T10:29:04;10.18;;;3.30;;
34765;SDS011;20984;43.508;1.504;2022-08-02T10:31:32;5.55;;;2.67;;
34765;SDS011;20984;43.508;1.504;2022-08-02T10:34:40;5.55;;;2.60;;
34765;SDS011;20984;43.508;1.504;2022-08-02T10:37:11;4.63;;;2.47;;
34765;SDS011;20984;43.508;1.504;2022-08-02T10:39:42;10.00;;;3.65;;
34765;SDS011;20984;43.508;1.504;2022-08-02T10:42:10;7.50;;;2.50;;
34765;SDS011;20984;43.508;1.504;2022-08-02T10:44:37;4.78;;;2.55;;
34765;SDS011;20984;43.508;1.504;2022-08-02T10:49:56;7.15;;;2.45;;
34765;SDS011;20984;43.508;1.504;2022-08-02T10:52:26;5.65;;;2.00;;
34765;SDS011;20984;43.508;1.504;2022-08-02T10:54:59;7.60;;;2.78;;
34765;SDS011;20984;43.508;1.504;2022-08-02T10:57:29;7.50;;;2.65;;
34765;SDS011;20984;43.508;1.504;2022-08-02T11:02:34;5.78;;;1.95;;
34765;SDS011;20984;43.508;1.504;2022-08-02T11:05:01;3.03;;;1.98;;
34765;SDS011;20984;43.508;1.504;2022-08-02T11:07:48;2.45;;;1.27;;
34765;SDS011;20984;43.508;1.504;2022-08-02T11:13:10;4.40;;;1.90;;
34765;SDS011;20984;43.508;1.504;2022-08-02T11:15:57;5.60;;;1.63;;
34765;SDS011;20984;43.508;1.504;2022-08-02T11:21:23;7.13;;;1.45;;
34765;SDS011;20984;43.508;1.504;2022-08-02T11:23:51;2.50;;;1.50;;
34765;SDS011;20984;43.508;1.504;2022-08-02T11:28:55;5.22;;;1.80;;
34765;SDS011;20984;43.508;1.504;2022-08-02T11:31:25;3.78;;;1.63;;
34765;SDS011;20984;43.508;1.504;2022-08-02T11:33:51;2.17;;;1.33;;
34765;SDS011;20984;43.508;1.504;2022-08-02T11:36:17;2.10;;;1.15;;
34765;SDS011;20984;43.508;1.504;2022-08-02T11:38:44;2.75;;;1.27;;
34765;SDS011;20984;43.508;1.504;2022-08-02T11:41:19;4.80;;;1.60;;
34765;SDS011;20984;43.508;1.504;2022-08-02T11:43:46;4.40;;;1.40;;
34765;SDS011;20984;43.508;1.504;2022-08-02T11:46:17;3.20;;;1.50;;
34765;SDS011;20984;43.508;1.504;2022-08-02T11:48:43;3.13;;;1.45;;
34765;SDS011;20984;43.508;1.504;2022-08-02T11:51:10;4.55;;;1.85;;
34765;SDS011;20984;43.508;1.504;2022-08-02T11:56:17;5.78;;;1.55;;
34765;SDS011;20984;43.508;1.504;2022-08-02T11:59:03;2.13;;;1.50;;
34765;SDS011;20984;43.508;1.504;2022-08-02T12:03:57;4.75;;;1.40;;
34765;SDS011;20984;43.508;1.504;2022-08-02T12:06:25;3.33;;;1.52;;
34765;SDS011;20984;43.508;1.504;2022-08-02T12:09:12;2.65;;;1.40;;
34765;SDS011;20984;43.508;1.504;2022-08-02T12:11:38;8.27;;;1.70;;
34765;SDS011;20984;43.508;1.504;2022-08-02T12:14:06;2.97;;;1.27;;
34765;SDS011;20984;43.508;1.504;2022-08-02T12:16:36;2.85;;;1.45;;
34765;SDS011;20984;43.508;1.504;2022-08-02T12:19:21;3.10;;;1.27;;
34765;SDS011;20984;43.508;1.504;2022-08-02T12:24:51;5.28;;;1.17;;
34765;SDS011;20984;43.508;1.504;2022-08-02T12:27:28;4.88;;;1.40;;
34765;SDS011;20984;43.508;1.504;2022-08-02T12:30:03;4.15;;;1.42;;
34765;SDS011;20984;43.508;1.504;2022-08-02T12:32:33;3.00;;;1.40;;
34765;SDS011;20984;43.508;1.504;2022-08-02T12:35:20;5.00;;;1.38;;
34765;SDS011;20984;43.508;1.504;2022-08-02T12:37:46;3.13;;;1.40;;
34765;SDS011;20984;43.508;1.504;2022-08-02T12:42:56;4.93;;;1.50;;
34765;SDS011;20984;43.508;1.504;2022-08-02T12:45:27;2.47;;;1.27;;
34765;SDS011;20984;43.508;1.504;2022-08-02T12:47:55;4.25;;;1.52;;
34765;SDS011;20984;43.508;1.504;2022-08-02T12:50:26;1.52;;;0.90;;
34765;SDS011;20984;43.508;1.504;2022-08-02T12:53:04;3.50;;;0.85;;
34765;SDS011;20984;43.508;1.504;2022-08-02T12:55:48;3.85;;;1.20;;
34765;SDS011;20984;43.508;1.504;2022-08-02T12:58:20;2.75;;;1.05;;
34765;SDS011;20984;43.508;1.504;2022-08-02T13:00:55;4.30;;;0.90;;
34765;SDS011;20984;43.508;1.504;2022-08-02T13:03:22;3.55;;;1.58;;
34765;SDS011;20984;43.508;1.504;2022-08-02T13:05:49;4.50;;;0.85;;
34765;SDS011;20984;43.508;1.504;2022-08-02T13:08:15;2.10;;;1.20;;
34765;SDS011;20984;43.508;1.504;2022-08-02T13:10:41;3.10;;;1.20;;
34765;SDS011;20984;43.508;1.504;2022-08-02T13:13:08;1.40;;;0.80;;
34765;SDS011;20984;43.508;1.504;2022-08-02T13:15:34;1.80;;;1.33;;
34765;SDS011;20984;43.508;1.504;2022-08-02T13:18:01;3.80;;;1.90;;
34765;SDS011;20984;43.508;1.504;2022-08-02T13:20:27;1.98;;;1.27;;
34765;SDS011;20984;43.508;1.504;2022-08-02T13:22:54;3.78;;;1.30;;
34765;SDS011;20984;43.508;1.504;2022-08-02T13:25:20;3.00;;;1.05;;
34765;SDS011;20984;43.508;1.504;2022-08-02T13:27:50;3.97;;;1.20;;
34765;SDS011;20984;43.508;1.504;2022-08-02T13:30:16;2.60;;;1.45;;
34765;SDS011;20984;43.508;1.504;2022-08-02T13:32:43;3.83;;;1.10;;
34765;SDS011;20984;43.508;1.504;2022-08-02T13:35:09;5.65;;;1.27;;
34765;SDS011;20984;43.508;1.504;2022-08-02T13:37:35;4.00;;;1.70;;
34765;SDS011;20984;43.508;1.504;2022-08-02T13:40:02;5.53;;;1.40;;
34765;SDS011;20984;43.508;1.504;2022-08-02T13:42:28;2.22;;;1.08;;
34765;SDS011;20984;43.508;1.504;2022-08-02T13:44:54;4.50;;;1.20;;
34765;SDS011;20984;43.508;1.504;2022-08-02T13:47:20;5.00;;;1.42;;
34765;SDS011;20984;43.508;1.504;2022-08-02T13:49:46;1.88;;;0.90;;
34765;SDS011;20984;43.508;1.504;2022-08-02T13:52:12;3.45;;;1.00;;
34765;SDS011;20984;43.508;1.504;2022-08-02T13:54:38;1.92;;;1.00;;
34765;SDS011;20984;43.508;1.504;2022-08-02T13:57:04;3.92;;;1.30;;
34765;SDS011;20984;43.508;1.504;2022-08-02T13:59:29;2.15;;;1.17;;
34765;SDS011;20984;43.508;1.504;2022-08-02T14:01:56;2.97;;;0.90;;
34765;SDS011;20984;43.508;1.504;2022-08-02T14:04:23;2.63;;;1.08;;
34765;SDS011;20984;43.508;1.504;2022-08-02T14:06:49;2.58;;;1.30;;
34765;SDS011;20984;43.508;1.504;2022-08-02T14:09:16;2.97;;;0.90;;
34765;SDS011;20984;43.508;1.504;2022-08-02T14:11:42;2.55;;;1.13;;
34765;SDS011;20984;43.508;1.504;2022-08-02T14:14:09;2.53;;;0.70;;
34765;SDS011;20984;43.508;1.504;2022-08-02T14:16:34;2.72;;;0.80;;
34765;SDS011;20984;43.508;1.504;2022-08-02T14:19:00;1.38;;;0.60;;
34765;SDS011;20984;43.508;1.504;2022-08-02T14:21:26;1.80;;;0.80;;
34765;SDS011;20984;43.508;1.504;2022-08-02T14:23:52;1.73;;;0.70;;
34765;SDS011;20984;43.508;1.504;2022-08-02T14:26:18;2.50;;;0.70;;
34765;SDS011;20984;43.508;1.504;2022-08-02T14:28:43;4.10;;;0.65;;
34765;SDS011;20984;43.508;1.504;2022-08-02T14:31:09;1.77;;;0.60;;
34765;SDS011;20984;43.508;1.504;2022-08-02T14:33:35;2.78;;;0.80;;
34765;SDS011;20984;43.508;1.504;2022-08-02T14:36:01;0.93;;;0.50;;
34765;SDS011;20984;43.508;1.504;2022-08-02T14:38:26;1.25;;;0.57;;
34765;SDS011;20984;43.508;1.504;2022-08-02T14:40:52;3.95;;;0.70;;
34765;SDS011;20984;43.508;1.504;2022-08-02T14:43:18;1.30;;;0.70;;
34765;SDS011;20984;43.508;1.504;2022-08-02T14:46:02;5.47;;;0.85;;
34765;SDS011;20984;43.508;1.504;2022-08-02T14:48:28;1.63;;;0.60;;
34765;SDS011;20984;43.508;1.504;2022-08-02T14:50:54;2.95;;;0.57;;
34765;SDS011;20984;43.508;1.504;2022-08-02T14:53:20;3.90;;;0.50;;
34765;SDS011;20984;43.508;1.504;2022-08-02T14:55:46;0.55;;;0.28;;
34765;SDS011;20984;43.508;1.504;2022-08-02T14:58:12;1.77;;;0.70;;
34765;SDS011;20984;43.508;1.504;2022-08-02T15:00:38;1.33;;;0.57;;
34765;SDS011;20984;43.508;1.504;2022-08-02T15:03:04;1.48;;;0.80;;
34765;SDS011;20984;43.508;1.504;2022-08-02T15:05:30;1.10;;;0.40;;
34765;SDS011;20984;43.508;1.504;2022-08-02T15:07:56;2.63;;;0.20;;
34765;SDS011;20984;43.508;1.504;2022-08-02T15:10:22;4.10;;;0.35;;
34765;SDS011;20984;43.508;1.504;2022-08-02T15:12:47;0.52;;;0.30;;
34765;SDS011;20984;43.508;1.504;2022-08-02T15:15:13;0.73;;;0.40;;
34765;SDS011;20984;43.508;1.504;2022-08-02T15:17:39;0.50;;;0.38;;
34765;SDS011;20984;43.508;1.504;2022-08-02T15:20:05;2.05;;;0.30;;
34765;SDS011;20984;43.508;1.504;2022-08-02T15:22:31;2.03;;;0.55;;
34765;SDS011;20984;43.508;1.504;2022-08-02T15:24:57;2.50;;;0.38;;
34765;SDS011;20984;43.508;1.504;2022-08-02T15:27:23;0.65;;;0.28;;
34765;SDS011;20984;43.508;1.504;2022-08-02T15:29:49;0.35;;;0.20;;
34765;SDS011;20984;43.508;1.504;2022-08-02T15:32:15;1.42;;;0.32;;
34765;SDS011;20984;43.508;1.504;2022-08-02T15:34:45;0.80;;;0.40;;
34765;SDS011;20984;43.508;1.504;2022-08-02T15:37:11;0.65;;;0.30;;
34765;SDS011;20984;43.508;1.504;2022-08-02T15:39:37;0.55;;;0.22;;
34765;SDS011;20984;43.508;1.504;2022-08-02T15:42:03;3.10;;;0.30;;